Portada
METAR-TAF:

METAR-TAF

Aeroports :

Gibraltar, Gibraltar

latitud: 36-09N, longitud: 005-21W, altitud: 5 m

Observació

L'informe es va fer fa 56 minuts, a les 09:50 UTC
Vent 7 kt del Est
Temperatura 20°C
Humitat 94%
Pressió 1020 hPa
Visibilitat: 7000 m
Escasses núvols a una alçada de 1000 ft
calitja

METAR: LXGB 220950Z 09007KT 7000 HZ FEW010 20/19 Q1020 NOSIG

Hora: 12:46 (10:46 UTC)

Pronòstic

L'informe es va fer fa 2 hores i 55 minuts, a les 07:51 UTC
Pronòstic vàlid del 22 a les 09 UTC al 22 a les 18 UTC
Vent 8 kt del Est/Nord-Est
Visibilitat 10 km o més
Escasses núvols a una alçada de 1200 ft
Probabilitat 40% :
Temporalment
l' 22 a les 09 UTC al 22 a les 12 UTC
Núvols disperses a una alçada de 1200 ft

TAF: LXGB 220751Z 2209/2218 07008KT 9999 FEW012 PROB40 TEMPO 2209/2212 SCT012

Observacions i pronòstics meteorològics de més de 4000 aeroports (METAR i TAF).

Les estacions disponibles són els punts grocs i vermells al mapa.

Posi el ratolí al punt desitjat per veure el nom de l'estació.

Feu clic per veure les observacions i els pronòstics meteorològics.

Per canviar el mapa: feu clic els botons verds amb una creu de color negre per apropar; al botó verd amb un guió per allunyar la imatge; o en les fletxes verdes per a mapes adjacents.


METAR-TAF: